hwlogo.jpg (8581 bytes)
Home Your Weather Products Services Weather On Your Site Contact
HW Version Logo
Weather Info
Your Weather (Options)
Canadian Weather
International Weather
Enter your " Place, State", US Zip Code or ICAO:  
Forecast Information Radar Information
Nain, Canada  Lat: 56.55N, Lon: 61.68W
ICAO Used: CYDP
Current Conditions
Updated: 8:00 AM GMT-7 TUE FEB 20 2018
Sun & Moon Information
Mostly Clear
Mostly Clear
Temp: -31°C
Humidity: 50%
Wind Speed: W 8 MPH G 20
Barometer: 1029 mb
Dewpoint: -38°C
Heat Index: -31°C
Wind Chill: -41°C
Civil Twilight: 3:44 AM GMT-7 Moon Phase:
Waxing Crescent Moon
Sunrise: 4:23 AM GMT-7
Sunset: 2:17 PM GMT-7
Civil Twilight: 2:56 PM GMT-7
Forecast for Nain, NF, Canada:
(Forecast based on TAF for )
0700 AM GMT-7 TUE FEB 20 2018
  
MORNING AFTERNOON EVENING OVERNIGHT
Clear Clear Clear Clear
ZoneCast:
Dated: 0700 AM GMT-7 TUE FEB 20 2018
Morning...Clear with winds from the west at 17 mph and gusts up to 29 mph.

Afternoon...Clear with winds from the west at 17 mph and gusts up to 29 mph.

Evening...Clear with winds from the west at 17 mph and gusts up to 29 mph.

Overnight...Clear with winds from the west at 17 mph and gusts up to 29 mph.

Original Encoded TAF:
Dated: 0700 AM GMT-7 TUE FEB 20 2018
2018/02/20 14:00
TAF CYDP 201338Z 2014/2024 28015G25KT P6SM SKC 
      RMK NXT FCST BY 202000Z